sensor_id;sensor_type;location;lat;lon;timestamp;P1;durP1;ratioP1;P2;durP2;ratioP2
12118;SDS011;6123;48.864;9.200;2022-10-22T00:00:48;1.10;;;0.70;;
12118;SDS011;6123;48.864;9.200;2022-10-22T00:03:14;1.75;;;0.80;;
12118;SDS011;6123;48.864;9.200;2022-10-22T00:05:40;0.98;;;0.77;;
12118;SDS011;6123;48.864;9.200;2022-10-22T00:08:05;0.93;;;0.73;;
12118;SDS011;6123;48.864;9.200;2022-10-22T00:10:31;0.90;;;0.70;;
12118;SDS011;6123;48.864;9.200;2022-10-22T00:12:57;2.03;;;0.82;;
12118;SDS011;6123;48.864;9.200;2022-10-22T00:15:22;2.53;;;0.85;;
12118;SDS011;6123;48.864;9.200;2022-10-22T00:17:51;2.83;;;0.80;;
12118;SDS011;6123;48.864;9.200;2022-10-22T00:20:19;0.52;;;0.50;;
12118;SDS011;6123;48.864;9.200;2022-10-22T00:22:47;1.27;;;0.60;;
12118;SDS011;6123;48.864;9.200;2022-10-22T00:25:13;1.13;;;0.40;;
12118;SDS011;6123;48.864;9.200;2022-10-22T00:27:41;1.85;;;0.43;;
12118;SDS011;6123;48.864;9.200;2022-10-22T00:30:07;2.47;;;0.47;;
12118;SDS011;6123;48.864;9.200;2022-10-22T00:32:33;0.57;;;0.40;;
12118;SDS011;6123;48.864;9.200;2022-10-22T00:34:58;1.00;;;0.60;;
12118;SDS011;6123;48.864;9.200;2022-10-22T00:37:27;1.85;;;0.50;;
12118;SDS011;6123;48.864;9.200;2022-10-22T00:39:54;0.30;;;0.30;;
12118;SDS011;6123;48.864;9.200;2022-10-22T00:42:21;0.93;;;0.60;;
12118;SDS011;6123;48.864;9.200;2022-10-22T00:47:40;0.68;;;0.57;;
12118;SDS011;6123;48.864;9.200;2022-10-22T00:50:08;0.70;;;0.30;;
12118;SDS011;6123;48.864;9.200;2022-10-22T00:52:43;1.20;;;0.60;;
12118;SDS011;6123;48.864;9.200;2022-10-22T00:55:12;0.88;;;0.60;;
12118;SDS011;6123;48.864;9.200;2022-10-22T00:57:38;1.38;;;0.60;;
12118;SDS011;6123;48.864;9.200;2022-10-22T01:00:05;0.77;;;0.60;;
12118;SDS011;6123;48.864;9.200;2022-10-22T01:02:31;0.38;;;0.32;;
12118;SDS011;6123;48.864;9.200;2022-10-22T01:04:57;1.67;;;0.52;;
12118;SDS011;6123;48.864;9.200;2022-10-22T01:07:23;1.08;;;0.73;;
12118;SDS011;6123;48.864;9.200;2022-10-22T01:12:55;0.63;;;0.40;;
12118;SDS011;6123;48.864;9.200;2022-10-22T01:18:23;1.10;;;0.45;;
12118;SDS011;6123;48.864;9.200;2022-10-22T01:28:48;0.55;;;0.47;;
12118;SDS011;6123;48.864;9.200;2022-10-22T01:31:28;0.90;;;0.60;;
12118;SDS011;6123;48.864;9.200;2022-10-22T01:34:02;2.15;;;0.63;;
12118;SDS011;6123;48.864;9.200;2022-10-22T01:36:28;1.25;;;0.85;;
12118;SDS011;6123;48.864;9.200;2022-10-22T01:38:55;1.08;;;0.63;;
12118;SDS011;6123;48.864;9.200;2022-10-22T01:41:26;1.02;;;0.45;;
12118;SDS011;6123;48.864;9.200;2022-10-22T01:43:52;0.57;;;0.40;;
12118;SDS011;6123;48.864;9.200;2022-10-22T01:46:18;0.57;;;0.40;;
12118;SDS011;6123;48.864;9.200;2022-10-22T02:07:11;0.95;;;0.55;;
12118;SDS011;6123;48.864;9.200;2022-10-22T02:09:39;0.90;;;0.40;;
12118;SDS011;6123;48.864;9.200;2022-10-22T02:12:11;0.68;;;0.40;;
12118;SDS011;6123;48.864;9.200;2022-10-22T02:14:45;0.50;;;0.50;;
12118;SDS011;6123;48.864;9.200;2022-10-22T02:17:14;0.65;;;0.47;;
12118;SDS011;6123;48.864;9.200;2022-10-22T02:19:46;0.45;;;0.30;;
12118;SDS011;6123;48.864;9.200;2022-10-22T02:22:36;0.40;;;0.40;;
12118;SDS011;6123;48.864;9.200;2022-10-22T02:25:04;1.60;;;0.32;;
12118;SDS011;6123;48.864;9.200;2022-10-22T02:27:31;3.45;;;0.90;;
12118;SDS011;6123;48.864;9.200;2022-10-22T02:30:36;0.50;;;0.45;;
12118;SDS011;6123;48.864;9.200;2022-10-22T02:32:57;4.18;;;0.50;;
12118;SDS011;6123;48.864;9.200;2022-10-22T02:35:28;1.50;;;0.50;;
12118;SDS011;6123;48.864;9.200;2022-10-22T02:37:55;1.05;;;0.50;;
12118;SDS011;6123;48.864;9.200;2022-10-22T02:40:22;0.30;;;0.20;;
12118;SDS011;6123;48.864;9.200;2022-10-22T02:42:49;0.77;;;0.60;;
12118;SDS011;6123;48.864;9.200;2022-10-22T02:45:15;0.68;;;0.50;;
12118;SDS011;6123;48.864;9.200;2022-10-22T02:47:44;1.02;;;0.47;;
12118;SDS011;6123;48.864;9.200;2022-10-22T02:50:10;0.30;;;0.25;;
12118;SDS011;6123;48.864;9.200;2022-10-22T02:52:36;0.85;;;0.55;;
12118;SDS011;6123;48.864;9.200;2022-10-22T02:55:02;1.75;;;0.60;;
12118;SDS011;6123;48.864;9.200;2022-10-22T02:57:29;1.67;;;0.50;;
12118;SDS011;6123;48.864;9.200;2022-10-22T02:59:57;0.52;;;0.40;;
12118;SDS011;6123;48.864;9.200;2022-10-22T03:02:25;1.20;;;0.50;;
12118;SDS011;6123;48.864;9.200;2022-10-22T03:04:50;1.58;;;0.50;;
12118;SDS011;6123;48.864;9.200;2022-10-22T03:07:18;0.63;;;0.63;;
12118;SDS011;6123;48.864;9.200;2022-10-22T03:09:44;1.25;;;0.55;;
12118;SDS011;6123;48.864;9.200;2022-10-22T03:12:10;0.75;;;0.50;;
12118;SDS011;6123;48.864;9.200;2022-10-22T03:14:36;0.80;;;0.50;;
12118;SDS011;6123;48.864;9.200;2022-10-22T03:17:04;0.68;;;0.40;;
12118;SDS011;6123;48.864;9.200;2022-10-22T03:19:29;0.43;;;0.40;;
12118;SDS011;6123;48.864;9.200;2022-10-22T03:21:56;0.77;;;0.40;;
12118;SDS011;6123;48.864;9.200;2022-10-22T03:24:29;0.93;;;0.63;;
12118;SDS011;6123;48.864;9.200;2022-10-22T03:26:59;1.42;;;0.50;;
12118;SDS011;6123;48.864;9.200;2022-10-22T03:29:25;1.08;;;0.60;;
12118;SDS011;6123;48.864;9.200;2022-10-22T03:31:54;2.05;;;0.65;;
12118;SDS011;6123;48.864;9.200;2022-10-22T03:34:20;1.42;;;0.73;;
12118;SDS011;6123;48.864;9.200;2022-10-22T03:36:46;1.25;;;0.50;;
12118;SDS011;6123;48.864;9.200;2022-10-22T03:39:12;2.22;;;1.00;;
12118;SDS011;6123;48.864;9.200;2022-10-22T03:41:45;3.85;;;0.80;;
12118;SDS011;6123;48.864;9.200;2022-10-22T03:44:14;2.30;;;0.75;;
12118;SDS011;6123;48.864;9.200;2022-10-22T03:46:41;0.95;;;0.73;;
12118;SDS011;6123;48.864;9.200;2022-10-22T03:49:07;1.05;;;0.70;;
12118;SDS011;6123;48.864;9.200;2022-10-22T03:51:32;1.25;;;0.70;;
12118;SDS011;6123;48.864;9.200;2022-10-22T03:53:59;1.13;;;0.40;;
12118;SDS011;6123;48.864;9.200;2022-10-22T03:56:25;0.68;;;0.68;;
12118;SDS011;6123;48.864;9.200;2022-10-22T03:58:54;1.33;;;0.57;;
12118;SDS011;6123;48.864;9.200;2022-10-22T04:01:21;1.42;;;0.68;;
12118;SDS011;6123;48.864;9.200;2022-10-22T04:03:47;1.40;;;0.63;;
12118;SDS011;6123;48.864;9.200;2022-10-22T04:06:16;1.38;;;0.80;;
12118;SDS011;6123;48.864;9.200;2022-10-22T04:08:42;1.55;;;0.80;;
12118;SDS011;6123;48.864;9.200;2022-10-22T04:11:08;1.58;;;0.90;;
12118;SDS011;6123;48.864;9.200;2022-10-22T04:13:35;1.65;;;0.90;;
12118;SDS011;6123;48.864;9.200;2022-10-22T04:16:11;0.80;;;0.80;;
12118;SDS011;6123;48.864;9.200;2022-10-22T04:18:41;1.00;;;0.50;;
12118;SDS011;6123;48.864;9.200;2022-10-22T04:21:09;3.67;;;0.63;;
12118;SDS011;6123;48.864;9.200;2022-10-22T04:23:48;1.35;;;0.57;;
12118;SDS011;6123;48.864;9.200;2022-10-22T04:26:15;0.80;;;0.50;;
12118;SDS011;6123;48.864;9.200;2022-10-22T04:28:42;0.60;;;0.60;;
12118;SDS011;6123;48.864;9.200;2022-10-22T04:31:18;0.55;;;0.50;;
12118;SDS011;6123;48.864;9.200;2022-10-22T04:33:46;1.45;;;0.80;;
12118;SDS011;6123;48.864;9.200;2022-10-22T04:36:16;1.38;;;0.50;;
12118;SDS011;6123;48.864;9.200;2022-10-22T04:38:44;1.15;;;0.52;;
12118;SDS011;6123;48.864;9.200;2022-10-22T04:41:17;1.65;;;0.60;;
12118;SDS011;6123;48.864;9.200;2022-10-22T04:43:47;0.68;;;0.50;;
12118;SDS011;6123;48.864;9.200;2022-10-22T04:46:14;0.30;;;0.30;;
12118;SDS011;6123;48.864;9.200;2022-10-22T04:48:41;1.10;;;0.50;;
12118;SDS011;6123;48.864;9.200;2022-10-22T04:51:09;0.40;;;0.40;;
12118;SDS011;6123;48.864;9.200;2022-10-22T04:53:37;0.85;;;0.60;;
12118;SDS011;6123;48.864;9.200;2022-10-22T04:56:08;0.35;;;0.30;;
12118;SDS011;6123;48.864;9.200;2022-10-22T04:58:36;1.10;;;0.73;;
12118;SDS011;6123;48.864;9.200;2022-10-22T05:01:10;0.80;;;0.80;;
12118;SDS011;6123;48.864;9.200;2022-10-22T05:03:37;1.02;;;0.60;;
12118;SDS011;6123;48.864;9.200;2022-10-22T05:06:02;2.92;;;0.85;;
12118;SDS011;6123;48.864;9.200;2022-10-22T05:08:28;2.67;;;0.88;;
12118;SDS011;6123;48.864;9.200;2022-10-22T05:10:56;0.70;;;0.70;;
12118;SDS011;6123;48.864;9.200;2022-10-22T05:13:21;0.47;;;0.30;;
12118;SDS011;6123;48.864;9.200;2022-10-22T05:15:47;0.65;;;0.65;;
12118;SDS011;6123;48.864;9.200;2022-10-22T05:18:13;1.33;;;0.80;;
12118;SDS011;6123;48.864;9.200;2022-10-22T05:20:39;3.33;;;0.70;;
12118;SDS011;6123;48.864;9.200;2022-10-22T05:23:05;0.73;;;0.70;;
12118;SDS011;6123;48.864;9.200;2022-10-22T05:25:35;1.42;;;0.57;;
12118;SDS011;6123;48.864;9.200;2022-10-22T05:28:03;1.30;;;0.75;;
12118;SDS011;6123;48.864;9.200;2022-10-22T05:30:29;0.70;;;0.70;;
12118;SDS011;6123;48.864;9.200;2022-10-22T05:32:55;1.67;;;0.65;;
12118;SDS011;6123;48.864;9.200;2022-10-22T05:35:20;1.73;;;1.63;;
12118;SDS011;6123;48.864;9.200;2022-10-22T05:37:46;1.20;;;0.88;;
12118;SDS011;6123;48.864;9.200;2022-10-22T05:40:11;1.45;;;0.70;;
12118;SDS011;6123;48.864;9.200;2022-10-22T05:42:37;1.20;;;0.65;;
12118;SDS011;6123;48.864;9.200;2022-10-22T05:45:05;2.85;;;0.63;;
12118;SDS011;6123;48.864;9.200;2022-10-22T05:47:34;1.85;;;0.50;;
12118;SDS011;6123;48.864;9.200;2022-10-22T05:50:00;1.45;;;0.57;;
12118;SDS011;6123;48.864;9.200;2022-10-22T05:52:25;1.30;;;0.50;;
12118;SDS011;6123;48.864;9.200;2022-10-22T05:54:51;2.22;;;1.00;;
12118;SDS011;6123;48.864;9.200;2022-10-22T05:57:16;3.22;;;0.80;;
12118;SDS011;6123;48.864;9.200;2022-10-22T05:59:42;0.60;;;0.60;;
12118;SDS011;6123;48.864;9.200;2022-10-22T06:02:08;2.15;;;0.80;;
12118;SDS011;6123;48.864;9.200;2022-10-22T06:04:34;0.80;;;0.80;;
12118;SDS011;6123;48.864;9.200;2022-10-22T06:07:00;3.58;;;0.90;;
12118;SDS011;6123;48.864;9.200;2022-10-22T06:09:35;1.35;;;0.85;;
12118;SDS011;6123;48.864;9.200;2022-10-22T06:12:01;0.60;;;0.60;;
12118;SDS011;6123;48.864;9.200;2022-10-22T06:14:27;1.88;;;0.88;;
12118;SDS011;6123;48.864;9.200;2022-10-22T06:16:57;1.17;;;0.82;;
12118;SDS011;6123;48.864;9.200;2022-10-22T06:19:24;4.72;;;1.30;;
12118;SDS011;6123;48.864;9.200;2022-10-22T06:21:52;1.38;;;1.00;;
12118;SDS011;6123;48.864;9.200;2022-10-22T06:24:22;1.25;;;1.15;;
12118;SDS011;6123;48.864;9.200;2022-10-22T06:26:48;0.75;;;0.70;;
12118;SDS011;6123;48.864;9.200;2022-10-22T06:29:15;1.40;;;0.80;;
12118;SDS011;6123;48.864;9.200;2022-10-22T06:31:43;0.93;;;0.70;;
12118;SDS011;6123;48.864;9.200;2022-10-22T06:34:10;3.35;;;1.17;;
12118;SDS011;6123;48.864;9.200;2022-10-22T06:36:37;1.10;;;1.02;;
12118;SDS011;6123;48.864;9.200;2022-10-22T06:39:08;1.88;;;1.50;;
12118;SDS011;6123;48.864;9.200;2022-10-22T06:41:35;2.00;;;1.00;;
12118;SDS011;6123;48.864;9.200;2022-10-22T06:44:04;1.77;;;1.17;;
12118;SDS011;6123;48.864;9.200;2022-10-22T06:46:29;2.83;;;1.23;;
12118;SDS011;6123;48.864;9.200;2022-10-22T06:49:01;1.20;;;1.15;;
12118;SDS011;6123;48.864;9.200;2022-10-22T06:51:27;0.93;;;0.80;;
12118;SDS011;6123;48.864;9.200;2022-10-22T06:53:55;1.08;;;0.95;;
12118;SDS011;6123;48.864;9.200;2022-10-22T06:56:22;1.02;;;0.90;;
12118;SDS011;6123;48.864;9.200;2022-10-22T06:58:53;1.65;;;1.02;;
12118;SDS011;6123;48.864;9.200;2022-10-22T07:01:20;1.60;;;1.40;;
12118;SDS011;6123;48.864;9.200;2022-10-22T07:03:50;3.47;;;1.17;;
12118;SDS011;6123;48.864;9.200;2022-10-22T07:06:16;3.50;;;1.33;;
12118;SDS011;6123;48.864;9.200;2022-10-22T07:08:42;1.70;;;1.60;;
12118;SDS011;6123;48.864;9.200;2022-10-22T07:11:09;1.60;;;1.50;;
12118;SDS011;6123;48.864;9.200;2022-10-22T07:13:37;1.40;;;1.30;;
12118;SDS011;6123;48.864;9.200;2022-10-22T07:16:03;2.10;;;1.30;;
12118;SDS011;6123;48.864;9.200;2022-10-22T07:18:33;1.10;;;1.00;;
12118;SDS011;6123;48.864;9.200;2022-10-22T07:21:02;1.95;;;1.40;;
12118;SDS011;6123;48.864;9.200;2022-10-22T07:23:28;2.50;;;1.23;;
12118;SDS011;6123;48.864;9.200;2022-10-22T07:25:54;2.35;;;1.27;;
12118;SDS011;6123;48.864;9.200;2022-10-22T07:28:20;0.73;;;0.60;;
12118;SDS011;6123;48.864;9.200;2022-10-22T07:30:48;5.13;;;0.90;;
12118;SDS011;6123;48.864;9.200;2022-10-22T07:33:14;1.10;;;0.60;;
12118;SDS011;6123;48.864;9.200;2022-10-22T07:35:39;1.95;;;0.70;;
12118;SDS011;6123;48.864;9.200;2022-10-22T07:38:06;1.00;;;0.60;;
12118;SDS011;6123;48.864;9.200;2022-10-22T07:40:35;1.98;;;0.70;;
12118;SDS011;6123;48.864;9.200;2022-10-22T07:43:01;1.88;;;1.08;;
12118;SDS011;6123;48.864;9.200;2022-10-22T07:45:30;1.60;;;1.10;;
12118;SDS011;6123;48.864;9.200;2022-10-22T07:47:56;1.40;;;1.20;;
12118;SDS011;6123;48.864;9.200;2022-10-22T07:50:24;1.38;;;1.27;;
12118;SDS011;6123;48.864;9.200;2022-10-22T07:52:50;1.60;;;1.38;;
12118;SDS011;6123;48.864;9.200;2022-10-22T07:55:16;2.05;;;1.50;;
12118;SDS011;6123;48.864;9.200;2022-10-22T07:57:41;1.40;;;1.30;;
12118;SDS011;6123;48.864;9.200;2022-10-22T08:00:07;2.25;;;1.40;;
12118;SDS011;6123;48.864;9.200;2022-10-22T08:02:34;1.63;;;1.20;;
12118;SDS011;6123;48.864;9.200;2022-10-22T08:05:02;2.58;;;1.20;;
12118;SDS011;6123;48.864;9.200;2022-10-22T08:07:27;1.42;;;1.10;;
12118;SDS011;6123;48.864;9.200;2022-10-22T08:09:53;1.20;;;1.13;;
12118;SDS011;6123;48.864;9.200;2022-10-22T08:12:19;1.33;;;0.95;;
12118;SDS011;6123;48.864;9.200;2022-10-22T08:14:44;2.55;;;1.10;;
12118;SDS011;6123;48.864;9.200;2022-10-22T08:17:10;1.55;;;0.85;;
12118;SDS011;6123;48.864;9.200;2022-10-22T08:19:36;1.33;;;0.95;;
12118;SDS011;6123;48.864;9.200;2022-10-22T08:22:04;2.30;;;1.08;;
12118;SDS011;6123;48.864;9.200;2022-10-22T08:24:29;0.85;;;0.73;;
12118;SDS011;6123;48.864;9.200;2022-10-22T08:26:55;2.03;;;0.88;;
12118;SDS011;6123;48.864;9.200;2022-10-22T08:29:21;1.15;;;0.88;;
12118;SDS011;6123;48.864;9.200;2022-10-22T08:31:48;1.10;;;1.00;;
12118;SDS011;6123;48.864;9.200;2022-10-22T08:34:16;2.35;;;1.30;;
12118;SDS011;6123;48.864;9.200;2022-10-22T08:36:42;1.63;;;1.15;;
12118;SDS011;6123;48.864;9.200;2022-10-22T08:39:08;1.83;;;0.90;;
12118;SDS011;6123;48.864;9.200;2022-10-22T08:50:41;3.40;;;1.00;;
12118;SDS011;6123;48.864;9.200;2022-10-22T08:53:17;2.10;;;1.10;;
12118;SDS011;6123;48.864;9.200;2022-10-22T08:55:48;1.55;;;0.90;;
12118;SDS011;6123;48.864;9.200;2022-10-22T08:58:35;1.15;;;0.90;;
12118;SDS011;6123;48.864;9.200;2022-10-22T09:01:09;1.80;;;1.00;;
12118;SDS011;6123;48.864;9.200;2022-10-22T09:06:25;3.20;;;0.80;;
12118;SDS011;6123;48.864;9.200;2022-10-22T09:08:53;0.95;;;0.77;;
12118;SDS011;6123;48.864;9.200;2022-10-22T09:13:46;0.68;;;0.68;;
12118;SDS011;6123;48.864;9.200;2022-10-22T09:16:29;0.93;;;0.70;;
12118;SDS011;6123;48.864;9.200;2022-10-22T09:27:09;0.75;;;0.70;;
12118;SDS011;6123;48.864;9.200;2022-10-22T09:29:41;2.40;;;0.90;;
12118;SDS011;6123;48.864;9.200;2022-10-22T09:32:07;1.23;;;0.75;;
12118;SDS011;6123;48.864;9.200;2022-10-22T09:34:33;1.58;;;0.90;;
12118;SDS011;6123;48.864;9.200;2022-10-22T09:37:00;0.70;;;0.70;;
12118;SDS011;6123;48.864;9.200;2022-10-22T09:39:31;0.95;;;0.50;;
12118;SDS011;6123;48.864;9.200;2022-10-22T09:42:02;1.77;;;0.73;;
12118;SDS011;6123;48.864;9.200;2022-10-22T09:44:28;1.33;;;0.80;;
12118;SDS011;6123;48.864;9.200;2022-10-22T09:47:05;0.82;;;0.82;;
12118;SDS011;6123;48.864;9.200;2022-10-22T09:50:03;0.95;;;0.82;;
12118;SDS011;6123;48.864;9.200;2022-10-22T09:53:11;1.23;;;0.85;;
12118;SDS011;6123;48.864;9.200;2022-10-22T09:56:06;0.95;;;0.90;;
12118;SDS011;6123;48.864;9.200;2022-10-22T09:58:46;0.80;;;0.80;;
12118;SDS011;6123;48.864;9.200;2022-10-22T10:01:22;1.35;;;0.82;;
12118;SDS011;6123;48.864;9.200;2022-10-22T10:03:48;0.75;;;0.75;;
12118;SDS011;6123;48.864;9.200;2022-10-22T10:06:19;0.90;;;0.82;;
12118;SDS011;6123;48.864;9.200;2022-10-22T10:08:45;0.75;;;0.52;;
12118;SDS011;6123;48.864;9.200;2022-10-22T10:11:24;1.98;;;1.77;;
12118;SDS011;6123;48.864;9.200;2022-10-22T10:14:09;1.17;;;0.65;;
12118;SDS011;6123;48.864;9.200;2022-10-22T10:25:36;0.57;;;0.55;;
12118;SDS011;6123;48.864;9.200;2022-10-22T10:33:52;1.77;;;0.80;;
12118;SDS011;6123;48.864;9.200;2022-10-22T10:41:43;1.73;;;0.80;;
12118;SDS011;6123;48.864;9.200;2022-10-22T10:44:19;1.00;;;0.90;;
12118;SDS011;6123;48.864;9.200;2022-10-22T10:49:36;0.85;;;0.70;;
12118;SDS011;6123;48.864;9.200;2022-10-22T10:52:23;1.27;;;1.10;;
12118;SDS011;6123;48.864;9.200;2022-10-22T10:55:17;0.75;;;0.52;;
12118;SDS011;6123;48.864;9.200;2022-10-22T11:01:04;1.90;;;0.93;;
12118;SDS011;6123;48.864;9.200;2022-10-22T11:06:38;1.15;;;1.08;;
12118;SDS011;6123;48.864;9.200;2022-10-22T11:09:20;1.13;;;0.70;;
12118;SDS011;6123;48.864;9.200;2022-10-22T11:12:24;1.23;;;1.13;;
12118;SDS011;6123;48.864;9.200;2022-10-22T11:17:41;0.80;;;0.80;;
12118;SDS011;6123;48.864;9.200;2022-10-22T11:20:17;0.63;;;0.63;;
12118;SDS011;6123;48.864;9.200;2022-10-22T11:22:47;1.45;;;0.80;;
12118;SDS011;6123;48.864;9.200;2022-10-22T11:25:23;0.75;;;0.75;;
12118;SDS011;6123;48.864;9.200;2022-10-22T11:28:54;4.72;;;2.05;;
12118;SDS011;6123;48.864;9.200;2022-10-22T11:31:03;1.88;;;1.10;;
12118;SDS011;6123;48.864;9.200;2022-10-22T11:34:09;1.27;;;1.10;;
12118;SDS011;6123;48.864;9.200;2022-10-22T11:36:47;1.58;;;0.98;;
12118;SDS011;6123;48.864;9.200;2022-10-22T11:41:58;1.35;;;0.80;;
12118;SDS011;6123;48.864;9.200;2022-10-22T11:44:28;2.67;;;0.93;;
12118;SDS011;6123;48.864;9.200;2022-10-22T11:49:26;1.88;;;0.60;;
12118;SDS011;6123;48.864;9.200;2022-10-22T11:52:23;0.70;;;0.70;;
12118;SDS011;6123;48.864;9.200;2022-10-22T11:54:53;1.15;;;0.80;;
12118;SDS011;6123;48.864;9.200;2022-10-22T11:57:21;2.38;;;0.80;;
12118;SDS011;6123;48.864;9.200;2022-10-22T11:59:53;1.45;;;1.00;;
12118;SDS011;6123;48.864;9.200;2022-10-22T12:07:57;0.80;;;0.80;;
12118;SDS011;6123;48.864;9.200;2022-10-22T12:10:35;1.52;;;0.90;;
12118;SDS011;6123;48.864;9.200;2022-10-22T12:13:21;1.80;;;1.08;;
12118;SDS011;6123;48.864;9.200;2022-10-22T12:15:50;1.15;;;0.65;;
12118;SDS011;6123;48.864;9.200;2022-10-22T12:18:22;0.93;;;0.80;;
12118;SDS011;6123;48.864;9.200;2022-10-22T12:20:51;1.63;;;1.02;;
12118;SDS011;6123;48.864;9.200;2022-10-22T12:23:18;3.58;;;1.00;;
12118;SDS011;6123;48.864;9.200;2022-10-22T12:25:48;2.45;;;0.90;;
12118;SDS011;6123;48.864;9.200;2022-10-22T12:28:14;0.68;;;0.68;;
12118;SDS011;6123;48.864;9.200;2022-10-22T12:30:40;2.20;;;1.30;;
12118;SDS011;6123;48.864;9.200;2022-10-22T12:33:07;1.52;;;1.00;;
12118;SDS011;6123;48.864;9.200;2022-10-22T12:35:43;2.08;;;0.80;;
12118;SDS011;6123;48.864;9.200;2022-10-22T12:38:14;0.95;;;0.70;;
12118;SDS011;6123;48.864;9.200;2022-10-22T12:40:42;0.57;;;0.55;;
12118;SDS011;6123;48.864;9.200;2022-10-22T12:43:12;0.90;;;0.77;;
12118;SDS011;6123;48.864;9.200;2022-10-22T12:45:39;0.60;;;0.60;;
12118;SDS011;6123;48.864;9.200;2022-10-22T12:48:13;1.13;;;0.70;;
12118;SDS011;6123;48.864;9.200;2022-10-22T12:50:50;0.68;;;0.45;;
12118;SDS011;6123;48.864;9.200;2022-10-22T12:53:18;1.17;;;0.98;;
12118;SDS011;6123;48.864;9.200;2022-10-22T12:55:51;1.38;;;1.00;;
12118;SDS011;6123;48.864;9.200;2022-10-22T12:58:31;1.48;;;0.70;;
12118;SDS011;6123;48.864;9.200;2022-10-22T13:01:02;2.35;;;0.95;;
12118;SDS011;6123;48.864;9.200;2022-10-22T13:03:32;5.05;;;1.40;;
12118;SDS011;6123;48.864;9.200;2022-10-22T13:08:42;2.00;;;1.30;;
12118;SDS011;6123;48.864;9.200;2022-10-22T13:14:32;2.10;;;1.00;;
12118;SDS011;6123;48.864;9.200;2022-10-22T13:19:49;2.05;;;1.45;;
12118;SDS011;6123;48.864;9.200;2022-10-22T13:27:51;2.03;;;1.38;;
12118;SDS011;6123;48.864;9.200;2022-10-22T13:30:49;4.18;;;1.10;;
12118;SDS011;6123;48.864;9.200;2022-10-22T13:35:51;3.00;;;0.93;;
12118;SDS011;6123;48.864;9.200;2022-10-22T13:38:19;2.30;;;1.20;;
12118;SDS011;6123;48.864;9.200;2022-10-22T13:40:46;1.60;;;1.08;;
12118;SDS011;6123;48.864;9.200;2022-10-22T13:43:12;2.65;;;1.17;;
12118;SDS011;6123;48.864;9.200;2022-10-22T13:45:38;2.47;;;1.23;;
12118;SDS011;6123;48.864;9.200;2022-10-22T13:48:04;1.23;;;1.10;;
12118;SDS011;6123;48.864;9.200;2022-10-22T13:50:30;2.47;;;1.50;;
12118;SDS011;6123;48.864;9.200;2022-10-22T13:52:56;3.60;;;1.20;;
12118;SDS011;6123;48.864;9.200;2022-10-22T13:55:28;1.92;;;1.20;;
12118;SDS011;6123;48.864;9.200;2022-10-22T14:00:45;2.03;;;1.15;;
12118;SDS011;6123;48.864;9.200;2022-10-22T14:03:15;1.52;;;1.25;;
12118;SDS011;6123;48.864;9.200;2022-10-22T14:05:47;1.25;;;1.15;;
12118;SDS011;6123;48.864;9.200;2022-10-22T14:08:14;2.05;;;1.45;;
12118;SDS011;6123;48.864;9.200;2022-10-22T14:10:44;2.13;;;1.10;;
12118;SDS011;6123;48.864;9.200;2022-10-22T14:13:10;2.55;;;1.45;;
12118;SDS011;6123;48.864;9.200;2022-10-22T14:15:37;3.05;;;1.30;;
12118;SDS011;6123;48.864;9.200;2022-10-22T14:18:03;1.75;;;1.23;;
12118;SDS011;6123;48.864;9.200;2022-10-22T14:20:30;1.52;;;1.05;;
12118;SDS011;6123;48.864;9.200;2022-10-22T14:23:02;2.08;;;1.60;;
12118;SDS011;6123;48.864;9.200;2022-10-22T14:25:38;2.55;;;1.20;;
12118;SDS011;6123;48.864;9.200;2022-10-22T14:28:07;1.17;;;1.00;;
12118;SDS011;6123;48.864;9.200;2022-10-22T14:30:34;2.00;;;1.10;;
12118;SDS011;6123;48.864;9.200;2022-10-22T14:33:01;2.47;;;1.20;;
12118;SDS011;6123;48.864;9.200;2022-10-22T14:35:26;1.80;;;0.88;;
12118;SDS011;6123;48.864;9.200;2022-10-22T14:37:54;1.88;;;1.20;;
12118;SDS011;6123;48.864;9.200;2022-10-22T14:40:22;1.70;;;1.20;;
12118;SDS011;6123;48.864;9.200;2022-10-22T14:42:47;1.40;;;1.05;;
12118;SDS011;6123;48.864;9.200;2022-10-22T14:45:23;5.00;;;1.30;;
12118;SDS011;6123;48.864;9.200;2022-10-22T14:47:54;0.93;;;0.90;;
12118;SDS011;6123;48.864;9.200;2022-10-22T14:50:23;2.33;;;1.25;;
12118;SDS011;6123;48.864;9.200;2022-10-22T14:52:49;0.93;;;0.82;;
12118;SDS011;6123;48.864;9.200;2022-10-22T14:55:18;1.33;;;1.17;;
12118;SDS011;6123;48.864;9.200;2022-10-22T14:57:43;1.50;;;1.40;;
12118;SDS011;6123;48.864;9.200;2022-10-22T15:00:16;1.42;;;0.93;;
12118;SDS011;6123;48.864;9.200;2022-10-22T15:02:43;3.47;;;1.27;;
12118;SDS011;6123;48.864;9.200;2022-10-22T15:05:10;1.70;;;1.13;;
12118;SDS011;6123;48.864;9.200;2022-10-22T15:07:36;2.17;;;1.13;;
12118;SDS011;6123;48.864;9.200;2022-10-22T15:10:03;1.70;;;1.40;;
12118;SDS011;6123;48.864;9.200;2022-10-22T15:12:32;3.00;;;1.13;;
12118;SDS011;6123;48.864;9.200;2022-10-22T15:14:57;1.90;;;1.10;;
12118;SDS011;6123;48.864;9.200;2022-10-22T15:17:23;2.58;;;1.20;;
12118;SDS011;6123;48.864;9.200;2022-10-22T15:19:49;1.65;;;1.15;;
12118;SDS011;6123;48.864;9.200;2022-10-22T15:22:14;2.03;;;1.35;;
12118;SDS011;6123;48.864;9.200;2022-10-22T15:24:45;1.77;;;1.38;;
12118;SDS011;6123;48.864;9.200;2022-10-22T15:27:14;1.73;;;1.33;;
12118;SDS011;6123;48.864;9.200;2022-10-22T15:29:42;2.75;;;1.17;;
12118;SDS011;6123;48.864;9.200;2022-10-22T15:32:08;3.55;;;1.92;;
12118;SDS011;6123;48.864;9.200;2022-10-22T15:34:35;3.03;;;1.23;;
12118;SDS011;6123;48.864;9.200;2022-10-22T15:37:03;1.48;;;1.38;;
12118;SDS011;6123;48.864;9.200;2022-10-22T15:39:31;2.05;;;1.33;;
12118;SDS011;6123;48.864;9.200;2022-10-22T15:41:57;6.45;;;5.95;;
12118;SDS011;6123;48.864;9.200;2022-10-22T15:44:24;2.50;;;1.60;;
12118;SDS011;6123;48.864;9.200;2022-10-22T15:46:52;1.75;;;1.60;;
12118;SDS011;6123;48.864;9.200;2022-10-22T15:49:21;4.55;;;1.75;;
12118;SDS011;6123;48.864;9.200;2022-10-22T15:51:48;2.90;;;1.42;;
12118;SDS011;6123;48.864;9.200;2022-10-22T15:54:15;1.67;;;1.40;;
12118;SDS011;6123;48.864;9.200;2022-10-22T15:56:45;1.65;;;1.23;;
12118;SDS011;6123;48.864;9.200;2022-10-22T15:59:13;2.22;;;1.60;;
12118;SDS011;6123;48.864;9.200;2022-10-22T16:01:40;1.55;;;1.40;;
12118;SDS011;6123;48.864;9.200;2022-10-22T16:04:06;1.70;;;1.50;;
12118;SDS011;6123;48.864;9.200;2022-10-22T16:09:07;2.38;;;1.42;;
12118;SDS011;6123;48.864;9.200;2022-10-22T16:11:34;2.38;;;1.50;;
12118;SDS011;6123;48.864;9.200;2022-10-22T16:14:01;3.50;;;1.73;;
12118;SDS011;6123;48.864;9.200;2022-10-22T16:16:31;1.58;;;1.48;;
12118;SDS011;6123;48.864;9.200;2022-10-22T16:19:00;2.90;;;1.92;;
12118;SDS011;6123;48.864;9.200;2022-10-22T16:21:26;4.20;;;1.60;;
12118;SDS011;6123;48.864;9.200;2022-10-22T16:23:53;2.25;;;1.70;;
12118;SDS011;6123;48.864;9.200;2022-10-22T16:26:19;4.22;;;1.58;;
12118;SDS011;6123;48.864;9.200;2022-10-22T16:28:45;3.53;;;1.77;;
12118;SDS011;6123;48.864;9.200;2022-10-22T16:31:13;4.13;;;1.95;;
12118;SDS011;6123;48.864;9.200;2022-10-22T16:33:40;2.67;;;2.00;;
12118;SDS011;6123;48.864;9.200;2022-10-22T16:36:13;2.05;;;1.88;;
12118;SDS011;6123;48.864;9.200;2022-10-22T16:38:44;2.15;;;1.95;;
12118;SDS011;6123;48.864;9.200;2022-10-22T16:41:22;3.80;;;1.90;;
12118;SDS011;6123;48.864;9.200;2022-10-22T16:43:58;2.50;;;2.20;;
12118;SDS011;6123;48.864;9.200;2022-10-22T16:46:29;2.92;;;2.28;;
12118;SDS011;6123;48.864;9.200;2022-10-22T16:48:55;3.42;;;2.33;;
12118;SDS011;6123;48.864;9.200;2022-10-22T16:51:22;3.30;;;2.30;;
12118;SDS011;6123;48.864;9.200;2022-10-22T16:53:50;4.43;;;2.40;;
12118;SDS011;6123;48.864;9.200;2022-10-22T16:56:16;2.60;;;2.38;;
12118;SDS011;6123;48.864;9.200;2022-10-22T16:58:47;4.82;;;2.47;;
12118;SDS011;6123;48.864;9.200;2022-10-22T17:01:14;3.40;;;2.20;;
12118;SDS011;6123;48.864;9.200;2022-10-22T17:03:40;2.65;;;2.10;;
12118;SDS011;6123;48.864;9.200;2022-10-22T17:06:06;4.15;;;2.97;;
12118;SDS011;6123;48.864;9.200;2022-10-22T17:08:35;4.78;;;3.97;;
12118;SDS011;6123;48.864;9.200;2022-10-22T17:11:09;7.22;;;4.53;;
12118;SDS011;6123;48.864;9.200;2022-10-22T17:13:42;5.88;;;4.22;;
12118;SDS011;6123;48.864;9.200;2022-10-22T17:16:09;8.80;;;5.15;;